WetterOnline ( https://www.wetteronline.de )

Wetter aktuell Leipzig

Aktuelles Wetter: Leipzig-Holzhausen (138m)

6-stündlich | Neueste Meldungen
Ortszeit Temperatur Wetter
Mo, 04.03. 7:00 0.8° C Nebel
Mo, 04.03. 1:00 3.2° C fast wolkenlos
So, 03.03. 19:00 8.7° C wolkig
So, 03.03. 13:00 13.2° C leicht bewölkt
So, 03.03. 7:00 2.8° C Nebel
So, 03.03. 1:00 4.9° C bedeckt
Sa, 02.03. 19:00 9.7° C bedeckt
Sa, 02.03. 13:00 12.7° C wolkig
Ortszeit Temperatur Wetter
Mo, 04.03. 12:00 4.8° C bedeckt
Mo, 04.03. 11:50 4.8° C Dunst
Mo, 04.03. 11:40 5.1° C bedeckt
Mo, 04.03. 11:30 4.2° C bedeckt
Mo, 04.03. 11:20 4.2° C Dunst
Mo, 04.03. 11:10 4.1° C Dunst
Mo, 04.03. 11:00 4.0° C Nebel
Mo, 04.03. 10:30 3.1° C Nebel
Mo, 04.03. 10:00 2.9° C Nebel
Mo, 04.03. 9:30 2.8° C Nebel
Mo, 04.03. 9:00 2.1° C Nebel
Ortszeit Relative Feuchte Sichtweite
Mo, 04.03. 7:00 100% <100 m
Mo, 04.03. 1:00 97% 7 km
So, 03.03. 19:00 81% 18 km
So, 03.03. 13:00 63% 25 km
So, 03.03. 7:00 99% 1.1 km
So, 03.03. 1:00 95% 4.8 km
Sa, 02.03. 19:00 82% 14 km
Sa, 02.03. 13:00 63% 35 km
Ortszeit Relative Feuchte Sichtweite
Mo, 04.03. 12:00 93% 5.0 km
Mo, 04.03. 11:50 93% -
Mo, 04.03. 11:40 92% -
Mo, 04.03. 11:30 95% 3.4 km
Mo, 04.03. 11:20 95% -
Mo, 04.03. 11:10 96% -
Mo, 04.03. 11:00 97% 3.0 km
Mo, 04.03. 10:30 99% 0.5 km
Mo, 04.03. 10:00 99% 0.3 km
Mo, 04.03. 9:30 100% 0.2 km
Mo, 04.03. 9:00 100% 100 m
Ortszeit Niederschlagsmenge Niederschlagsart
Mo, 04.03. 7:00 0.0 l/m2 in 12 Std. -
Mo, 04.03. 1:00 0.0 l/m2 in 6 Std. -
So, 03.03. 19:00 0.0 l/m2 in 12 Std. -
So, 03.03. 13:00 0.0 l/m2 in 6 Std. -
So, 03.03. 7:00 0.0 l/m2 in 12 Std. -
So, 03.03. 1:00 0.0 l/m2 in 6 Std. -
Sa, 02.03. 19:00 0.1 l/m2 in 12 Std. -
Sa, 02.03. 13:00 0.1 l/m2 in 6 Std. Regen
Ortszeit Niederschlagsmenge Niederschlagsart
Mo, 04.03. 12:00 0.0 l/m2 in 1 Std. -
Mo, 04.03. 11:50 keine Meldung -
Mo, 04.03. 11:40 keine Meldung -
Mo, 04.03. 11:30 0.0 l/m2 in 30 Min -
Mo, 04.03. 11:20 keine Meldung -
Mo, 04.03. 11:10 keine Meldung -
Mo, 04.03. 11:00 0.0 l/m2 in 1 Std. -
Mo, 04.03. 10:30 0.0 l/m2 in 30 Min -
Mo, 04.03. 10:00 0.0 l/m2 in 1 Std. -
Mo, 04.03. 9:30 0.0 l/m2 in 30 Min -
Mo, 04.03. 9:00 0.0 l/m2 in 1 Std. -
Ortszeit Stärke Spitze Richtung
km/h Bft. km/h Grad Sektor
Mo, 04.03. 7:00 4 1 7 190° S
Mo, 04.03. 1:00 4 1 14 50° NO
So, 03.03. 19:00 4 1 22 80° O
So, 03.03. 13:00 11 2 22 110° O
So, 03.03. 7:00 2 1 13 90° O
So, 03.03. 1:00 4 1 18 100° O
Sa, 02.03. 19:00 6 1 22 100° O
Sa, 02.03. 13:00 11 2 22 160° S
Ortszeit Stärke Spitze Richtung
km/h Bft. km/h Grad Sektor
Mo, 04.03. 12:00 6 1 11 10° N
Mo, 04.03. 11:50 6 1 - 10° N
Mo, 04.03. 11:40 4 1 - 360° N
Mo, 04.03. 11:30 4 1 11 300° NW
Mo, 04.03. 11:20 4 1 - 300° NW
Mo, 04.03. 11:10 4 1 - 270° W
Mo, 04.03. 11:00 4 1 11 290° W
Mo, 04.03. 10:30 4 1 11 260° W
Mo, 04.03. 10:00 6 1 11 290° W
Mo, 04.03. 9:30 6 1 9 280° W
Mo, 04.03. 9:00 4 1 11 240° SW
Ortszeit Untergrenze Bedeckung Gattung
total tief tief mittel hoch
Mo, 04.03. 7:00 <30 m 8/8 0/8 - - -
Mo, 04.03. 1:00 9000 m 2/8 0/8 - - -
So, 03.03. 19:00 9000 m 7/8 0/8 - - -
So, 03.03. 13:00 750 m 3/8 1/8 - - -
So, 03.03. 7:00 8100 m 1/8 0/8 - - -
So, 03.03. 1:00 4800 m 8/8 8/8 - - -
Sa, 02.03. 19:00 6000 m 8/8 8/8 - - -
Sa, 02.03. 13:00 9000 m 7/8 0/8 - - -
Ortszeit Bedeckungsgrad in Achtel und Wolkenuntergrenze
Mo, 04.03. 12:00 8(90m)
Mo, 04.03. 11:50 8(90m)
Mo, 04.03. 11:40 8
Mo, 04.03. 11:30 8(60m)
Mo, 04.03. 11:20 8(60m)
Mo, 04.03. 11:10 8
Mo, 04.03. 11:00 8(30m)
Mo, 04.03. 10:30 8(30m)
Mo, 04.03. 10:00 8(<30m)
Mo, 04.03. 9:30 8(<30m)
Mo, 04.03. 9:00 8(<30m)
Ortszeit Luftdruck NN (hPa) Tendenz (hPa in 3 Std.)
Mo, 04.03. 7:00 1008 + 1,4
Mo, 04.03. 1:00 1005 + 0,6
So, 03.03. 19:00 1004 + 1,0
So, 03.03. 13:00 1003 - 0,5
So, 03.03. 7:00 1004 - 0,2
So, 03.03. 1:00 1005 - 0,6
Sa, 02.03. 19:00 1006 + 0,2
Sa, 02.03. 13:00 1007 - 0,3
Ortszeit Luftdruck NN (hPa) Tendenz (hPa in 3 Std.)
Mo, 04.03. 12:00 1010 + 1,4
Mo, 04.03. 11:50 1010 keine Meldung
Mo, 04.03. 11:40 1010 keine Meldung
Mo, 04.03. 11:30 1010 + 1,6
Mo, 04.03. 11:20 1010 keine Meldung
Mo, 04.03. 11:10 1010 keine Meldung
Mo, 04.03. 11:00 1010 + 1,6
Mo, 04.03. 10:30 1010 + 1,8
Mo, 04.03. 10:00 1009 + 1,9
Mo, 04.03. 9:30 1009 + 1,8
Mo, 04.03. 9:00 1009 + 2,0
Ortszeit Schneehöhe (cm)
Mo, 04.03. 7:00 0
Mo, 04.03. 1:00 0
So, 03.03. 19:00 0
So, 03.03. 13:00 0
So, 03.03. 7:00 0
So, 03.03. 1:00 0
Sa, 02.03. 19:00 0
Sa, 02.03. 13:00 0
Ortszeit Schneehöhe (cm)
Mo, 04.03. 12:00 0
Mo, 04.03. 11:50 0
Mo, 04.03. 11:40 -
Mo, 04.03. 11:30 0
Mo, 04.03. 11:20 0
Mo, 04.03. 11:10 -
Mo, 04.03. 11:00 0
Mo, 04.03. 10:30 0
Mo, 04.03. 10:00 0
Mo, 04.03. 9:30 0
Mo, 04.03. 9:00 0
Link zu dieser Seite / Seite empfehlen

Das Wetter in ...